Time;durP1;ratioP1;P1;durP2;ratioP2;P2;SDS_P1;SDS_P2;PMS_P1;PMS_P2;Temp;Humidity;BMP_temperature;BMP_pressure;BME280_temperature;BME280_humidity;BME280_pressure;Samples;Min_cycle;Max_cycle;Signal;HPM_P1;HPM_P2
2022/04/08 00:01:52;;;;;;;9.30;4.95;;;;;;;12.10;65.81;99274.09;4992458;28;102535;-87
2022/04/08 00:04:18;;;;;;;8.73;4.03;;;;;;;12.10;65.65;99274.09;4991105;28;104019;-85
2022/04/08 00:06:45;;;;;;;11.68;4.70;;;;;;;12.10;65.61;99263.19;4992649;28;102523;-86
2022/04/08 00:09:11;;;;;;;7.57;4.75;;;;;;;12.10;65.65;99271.38;4999221;28;102237;-87
2022/04/08 00:11:39;;;;;;;9.40;4.68;;;;;;;12.10;65.69;99268.63;4987874;28;102393;-87
2022/04/08 00:14:07;;;;;;;8.38;4.60;;;;;;;12.11;65.73;99269.44;4970989;28;103555;-87
2022/04/08 00:16:33;;;;;;;9.48;4.32;;;;;;;12.10;65.90;99263.19;4983908;28;102119;-86
2022/04/08 00:19:00;;;;;;;9.77;4.85;;;;;;;12.10;65.75;99268.63;4987002;28;102534;-87
2022/04/08 00:21:27;;;;;;;11.00;4.25;;;;;;;12.10;65.92;99276.03;4981522;28;102267;-87
2022/04/08 00:23:53;;;;;;;11.52;5.38;;;;;;;12.10;65.72;99274.09;4986117;28;103839;-87
2022/04/08 00:26:20;;;;;;;10.15;4.85;;;;;;;12.11;65.74;99264.00;4989255;28;102116;-87
2022/04/08 00:28:47;;;;;;;12.13;4.63;;;;;;;12.11;65.55;99264.00;4971127;28;102551;-87
2022/04/08 00:31:15;;;;;;;10.45;4.55;;;;;;;12.11;65.75;99264.78;4983905;28;102199;-85
2022/04/08 00:33:41;;;;;;;7.33;3.67;;;;;;;12.12;65.78;99263.69;4989924;28;102939;-87
2022/04/08 00:36:08;;;;;;;11.57;4.43;;;;;;;12.11;65.90;99256.59;4989371;28;101986;-87
2022/04/08 00:38:35;;;;;;;8.05;4.38;;;;;;;12.12;65.71;99254.72;4989842;28;102080;-87
2022/04/08 00:41:02;;;;;;;9.95;4.32;;;;;;;12.13;65.75;99253.56;4990729;28;102383;-87
2022/04/08 00:43:34;;;;;;;8.85;4.30;;;;;;;12.12;65.44;99250.06;4990111;28;104073;-87
2022/04/08 00:46:01;;;;;;;10.98;3.80;;;;;;;12.13;65.96;99246.19;4990043;28;101967;-87
2022/04/08 00:48:30;;;;;;;8.50;4.10;;;;;;;12.13;65.77;99245.41;4978369;28;102282;-87
2022/04/08 00:50:58;;;;;;;9.15;4.25;;;;;;;12.14;65.66;99249.72;4990424;28;102165;-87
2022/04/08 00:53:25;;;;;;;6.97;3.60;;;;;;;12.13;65.83;99257.09;4990403;28;103914;-88
2022/04/08 00:56:03;;;;;;;7.60;4.00;;;;;;;12.14;65.61;99263.34;4991410;28;102586;-87
2022/04/08 00:58:31;;;;;;;9.45;4.55;;;;;;;12.14;65.81;99261.44;4994454;28;102338;-87
2022/04/08 01:00:58;;;;;;;7.65;3.92;;;;;;;12.14;65.83;99258.69;4995137;28;102095;-87
2022/04/08 01:03:26;;;;;;;8.45;4.05;;;;;;;12.14;65.41;99266.88;4988778;28;104192;-87
2022/04/08 01:05:54;;;;;;;5.63;3.67;;;;;;;12.14;65.75;99269.63;4986652;28;102482;-86
2022/04/08 01:08:21;;;;;;;8.20;4.30;;;;;;;12.15;65.86;99265.78;4992218;28;102089;-86
2022/04/08 01:10:48;;;;;;;11.27;4.00;;;;;;;12.14;65.81;99266.88;4994346;28;102464;-86
2022/04/08 01:13:15;;;;;;;10.15;4.30;;;;;;;12.15;65.96;99271.25;4990680;28;103917;-86
2022/04/08 01:15:51;;;;;;;8.60;3.90;;;;;;;12.14;65.56;99269.63;4993708;28;101906;-85
2022/04/08 01:18:17;;;;;;;7.03;3.95;;;;;;;12.16;65.95;99278.28;4990918;28;102067;-85
2022/04/08 01:20:44;;;;;;;7.22;3.80;;;;;;;12.14;65.81;99264.16;4985350;28;102321;-86
2022/04/08 01:23:17;;;;;;;7.68;3.72;;;;;;;12.16;65.84;99269.31;4993607;28;103975;-87
2022/04/08 01:25:55;;;;;;;7.90;3.60;;;;;;;12.15;65.75;99265.78;4994424;28;102122;-86
2022/04/08 01:28:25;;;;;;;9.82;4.03;;;;;;;12.15;65.79;99271.25;4987708;28;101974;-86
2022/04/08 01:30:51;;;;;;;9.85;3.90;;;;;;;12.16;65.74;99270.13;4975533;28;102898;-86
2022/04/08 01:33:18;;;;;;;7.32;3.83;;;;;;;12.16;65.80;99272.84;4990518;28;103832;-85
2022/04/08 01:35:45;;;;;;;9.10;3.40;;;;;;;12.16;66.12;99275.56;4993838;28;102382;-85
2022/04/08 01:38:11;;;;;;;7.07;3.67;;;;;;;12.17;65.81;99274.44;4993393;28;102277;-86
2022/04/08 01:40:41;;;;;;;6.25;3.17;;;;;;;12.17;65.57;99268.97;4994022;28;102537;-86
2022/04/08 01:43:10;;;;;;;7.10;3.50;;;;;;;12.15;65.81;99265.78;4992752;28;103987;-86
2022/04/08 01:45:36;;;;;;;6.37;3.43;;;;;;;12.17;65.90;99268.97;4993378;28;102058;-86
2022/04/08 01:48:03;;;;;;;6.28;3.58;;;;;;;12.17;65.64;99260.81;4993812;28;102647;-87
2022/04/08 01:50:30;;;;;;;7.47;3.75;;;;;;;12.18;65.96;99267.06;4994066;28;102422;-86
2022/04/08 01:52:57;;;;;;;6.22;3.40;;;;;;;12.17;65.87;99260.81;4990339;28;104099;-86
2022/04/08 01:55:24;;;;;;;6.82;3.60;;;;;;;12.16;66.02;99256.47;4993116;28;102104;-87
2022/04/08 01:57:51;;;;;;;6.43;3.08;;;;;;;12.16;65.82;99253.75;4992157;28;102476;-86
2022/04/08 02:00:19;;;;;;;7.78;3.88;;;;;;;12.16;65.65;99248.28;4994460;28;102315;-86
2022/04/08 02:02:51;;;;;;;8.18;3.50;;;;;;;12.17;65.72;99247.16;4993203;28;103364;-86
2022/04/08 02:05:17;;;;;;;6.57;3.58;;;;;;;12.17;65.85;99241.72;4993667;28;102428;-85
2022/04/08 02:07:44;;;;;;;6.18;3.38;;;;;;;12.17;65.48;99247.16;4976257;28;102930;-86
2022/04/08 02:10:11;;;;;;;5.25;3.45;;;;;;;12.18;65.77;99237.06;4976613;28;102659;-87
2022/04/08 02:12:39;;;;;;;5.78;3.60;;;;;;;12.17;65.58;99249.09;4976617;28;103862;-86
2022/04/08 02:15:07;;;;;;;8.48;3.80;;;;;;;12.17;65.57;99241.72;4997129;28;101928;-87
2022/04/08 02:17:37;;;;;;;7.30;3.58;;;;;;;12.18;65.72;99243.31;4996234;28;101983;-86
2022/04/08 02:20:08;;;;;;;6.13;3.47;;;;;;;12.18;65.74;99240.56;4997017;28;102675;-87
2022/04/08 02:22:54;;;;;;;8.50;3.58;;;;;;;12.17;65.87;99241.72;4995648;28;104123;-86
2022/04/08 02:25:22;;;;;;;10.02;3.72;;;;;;;12.16;65.97;99242.84;4994388;28;102254;-86
2022/04/08 02:27:49;;;;;;;7.35;3.50;;;;;;;12.16;65.97;99229.19;4995557;28;102596;-86
2022/04/08 02:30:16;;;;;;;9.93;3.80;;;;;;;12.16;65.87;99234.66;4989850;28;102516;-86
2022/04/08 02:32:46;;;;;;;5.35;3.03;;;;;;;12.16;65.92;99231.94;4976296;28;104009;-86
2022/04/08 02:35:12;;;;;;;8.85;3.42;;;;;;;12.16;65.79;99237.38;4976483;28;102004;-87
2022/04/08 02:37:39;;;;;;;8.05;3.78;;;;;;;12.18;65.86;99226.94;4974926;28;101775;-86
2022/04/08 02:40:08;;;;;;;7.57;3.25;;;;;;;12.16;65.84;99234.66;4975698;28;102008;-85
2022/04/08 02:42:37;;;;;;;7.30;3.28;;;;;;;12.17;65.62;99236.25;4973883;28;103904;-87
2022/04/08 02:45:05;;;;;;;9.02;3.58;;;;;;;12.16;65.95;99233.84;4973884;28;102528;-87
2022/04/08 02:47:31;;;;;;;9.75;3.97;;;;;;;12.17;65.75;99236.25;5000057;28;102420;-86
2022/04/08 02:49:59;;;;;;;7.50;3.80;;;;;;;12.16;65.90;99225.69;4982559;28;103102;-86
2022/04/08 02:52:26;;;;;;;7.90;3.50;;;;;;;12.16;65.96;99228.41;4991502;28;104171;-85
2022/04/08 02:54:53;;;;;;;7.20;3.65;;;;;;;12.16;65.88;99229.19;4989656;28;102506;-86
2022/04/08 02:57:19;;;;;;;9.18;3.70;;;;;;;12.17;65.95;99225.34;4992591;28;102417;-85
2022/04/08 02:59:46;;;;;;;8.02;3.20;;;;;;;12.16;66.14;99222.94;4982342;28;102103;-85
2022/04/08 03:02:12;;;;;;;8.30;3.67;;;;;;;12.17;65.75;99233.53;4988991;28;103299;-85
2022/04/08 03:04:41;;;;;;;8.00;3.42;;;;;;;12.18;65.91;99237.84;4991910;28;103483;-85
2022/04/08 03:07:09;;;;;;;10.50;3.83;;;;;;;12.18;65.93;99239.78;4990756;28;102107;-86
2022/04/08 03:09:38;;;;;;;7.03;3.20;;;;;;;12.18;65.98;99237.84;4994254;28;102184;-86
2022/04/08 03:12:05;;;;;;;6.53;3.17;;;;;;;12.18;66.06;99242.50;4986474;28;103897;-86
2022/04/08 03:14:32;;;;;;;7.18;3.30;;;;;;;12.18;65.97;99245.22;4986434;28;102145;-85
2022/04/08 03:16:58;;;;;;;6.25;2.88;;;;;;;12.18;65.59;99245.22;4991173;28;102393;-85
2022/04/08 03:19:25;;;;;;;6.93;3.60;;;;;;;12.17;65.77;99249.88;4979072;28;102283;-86
2022/04/08 03:21:52;;;;;;;7.65;3.75;;;;;;;12.17;65.71;99255.34;4987991;28;103869;-85
2022/04/08 03:24:20;;;;;;;5.03;2.97;;;;;;;12.17;65.73;99263.53;4987924;28;102531;-86
2022/04/08 03:26:48;;;;;;;3.90;2.60;;;;;;;12.17;65.69;99257.28;4989055;28;102699;-85
2022/04/08 03:29:14;;;;;;;7.53;3.15;;;;;;;12.15;65.89;99260.34;4991310;28;102827;-86
2022/04/08 03:31:41;;;;;;;5.82;3.20;;;;;;;12.18;66.05;99262.41;4990600;28;103980;-86
2022/04/08 03:34:08;;;;;;;6.43;3.53;;;;;;;12.17;65.78;99263.53;4992068;28;102494;-86
2022/04/08 03:36:35;;;;;;;5.97;2.92;;;;;;;12.16;65.71;99256.47;4992270;28;102506;-86
2022/04/08 03:39:01;;;;;;;6.78;2.75;;;;;;;12.17;65.76;99258.06;4992388;28;102423;-86
2022/04/08 03:41:30;;;;;;;7.18;3.10;;;;;;;12.18;65.76;99258.88;4990098;28;104024;-86
2022/04/08 03:43:56;;;;;;;6.55;3.15;;;;;;;12.18;65.73;99264.31;4990553;28;102603;-86
2022/04/08 03:46:24;;;;;;;6.78;3.40;;;;;;;12.18;65.71;99256.16;4989913;28;101955;-86
2022/04/08 03:48:50;;;;;;;7.50;3.13;;;;;;;12.18;65.71;99256.16;4991783;28;102493;-86
2022/04/08 03:51:17;;;;;;;6.72;2.90;;;;;;;12.18;65.70;99262.41;4990021;28;104122;-86
2022/04/08 03:53:43;;;;;;;5.40;2.92;;;;;;;12.16;65.71;99259.19;4990138;28;102157;-86
2022/04/08 03:56:10;;;;;;;4.47;2.60;;;;;;;12.17;65.70;99263.53;4990630;28;102552;-86
2022/04/08 03:58:38;;;;;;;6.68;2.95;;;;;;;12.18;65.74;99270.59;4992315;28;102421;-86
2022/04/08 04:01:06;;;;;;;7.47;3.20;;;;;;;12.18;65.91;99264.31;4990533;28;104391;-86
2022/04/08 04:03:33;;;;;;;6.45;3.65;;;;;;;12.19;65.85;99268.69;4990517;28;102481;-86
2022/04/08 04:06:01;;;;;;;6.40;2.80;;;;;;;12.17;65.72;99274.44;4990687;28;102174;-85
2022/04/08 04:08:27;;;;;;;6.70;3.33;;;;;;;12.17;65.82;99279.88;4991703;28;102303;-85
2022/04/08 04:10:58;;;;;;;6.07;3.13;;;;;;;12.18;65.72;99277.97;4990384;28;103972;-86
2022/04/08 04:13:25;;;;;;;6.45;2.92;;;;;;;12.18;65.74;99281.50;4990829;28;102053;-85
2022/04/08 04:15:53;;;;;;;7.43;3.55;;;;;;;12.18;65.73;99292.41;4990194;28;102095;-85
2022/04/08 04:18:20;;;;;;;4.57;2.70;;;;;;;12.17;65.65;99285.34;5005468;28;104834;-85
2022/04/08 04:20:47;;;;;;;5.30;3.22;;;;;;;12.18;65.88;99292.41;4988854;28;104069;-85
2022/04/08 04:23:13;;;;;;;4.15;2.70;;;;;;;12.19;65.75;99295.97;4991522;28;102353;-85
2022/04/08 04:25:41;;;;;;;6.18;3.40;;;;;;;12.18;65.79;99297.06;4978838;28;102126;-87
2022/04/08 04:28:08;;;;;;;6.00;3.28;;;;;;;12.18;65.75;99295.13;4990810;28;102147;-85
2022/04/08 04:30:34;;;;;;;8.30;3.28;;;;;;;12.18;65.94;99294.31;4992255;28;103976;-85
2022/04/08 04:33:03;;;;;;;7.65;3.22;;;;;;;12.19;65.87;99304.13;4994262;28;102309;-85
2022/04/08 04:35:29;;;;;;;5.38;2.80;;;;;;;12.19;65.57;99302.22;4991806;28;102662;-85
2022/04/08 04:37:56;;;;;;;6.30;2.70;;;;;;;12.17;65.66;99301.72;4993559;28;102730;-85
2022/04/08 04:40:25;;;;;;;6.53;3.27;;;;;;;12.19;65.70;99304.13;4991918;28;103923;-87
2022/04/08 04:42:52;;;;;;;5.15;3.05;;;;;;;12.18;65.84;99314.22;4980881;28;102092;-86
2022/04/08 04:45:19;;;;;;;5.95;3.17;;;;;;;12.18;65.79;99313.41;4985316;28;102062;-85
2022/04/08 04:47:45;;;;;;;8.30;2.80;;;;;;;12.19;65.84;99326.75;4993991;28;102545;-86
2022/04/08 04:50:13;;;;;;;5.68;2.97;;;;;;;12.19;65.53;99321.31;4992819;28;103827;-86
2022/04/08 04:52:39;;;;;;;7.40;3.55;;;;;;;12.19;65.79;99320.50;4992813;28;102388;-88
2022/04/08 04:55:09;;;;;;;3.92;2.95;;;;;;;12.19;65.60;99326.75;4993108;28;102629;-88
2022/04/08 04:57:36;;;;;;;5.30;2.95;;;;;;;12.19;65.85;99332.22;4993803;28;102302;-88
2022/04/08 05:00:12;;;;;;;6.23;2.90;;;;;;;12.20;65.52;99333.81;4988655;28;104920;-88
2022/04/08 05:02:39;;;;;;;6.90;2.92;;;;;;;12.20;65.80;99338.47;4991500;28;102353;-88
2022/04/08 05:05:08;;;;;;;5.03;2.65;;;;;;;12.19;65.86;99329.47;4988299;28;102620;-87
2022/04/08 05:07:37;;;;;;;8.98;2.80;;;;;;;12.20;65.84;99338.47;4992147;28;102238;-87
2022/04/08 05:10:06;;;;;;;5.68;3.08;;;;;;;12.20;65.81;99342.00;4984133;28;104116;-87
2022/04/08 05:12:32;;;;;;;4.28;2.20;;;;;;;12.20;65.72;99344.72;4991114;28;102265;-87
2022/04/08 05:14:59;;;;;;;4.90;2.95;;;;;;;12.20;65.79;99344.72;4983416;28;102892;-87
2022/04/08 05:17:26;;;;;;;4.88;2.80;;;;;;;12.21;65.78;99356.44;4986229;28;102555;-87
2022/04/08 05:19:53;;;;;;;5.03;2.50;;;;;;;12.21;65.81;99361.88;4987618;28;103959;-87
2022/04/08 05:22:20;;;;;;;5.85;2.83;;;;;;;12.22;65.68;99360.75;4982434;28;102433;-87
2022/04/08 05:24:47;;;;;;;5.95;3.30;;;;;;;12.20;65.58;99361.09;4972199;28;102488;-87
2022/04/08 05:27:15;;;;;;;;;;;;;;;12.21;65.55;99364.63;4991476;28;102676;-90
2022/04/08 05:29:42;;;;;;;8.65;3.17;;;;;;;12.21;65.66;99359.97;4974394;28;103905;-89
2022/04/08 05:32:08;;;;;;;6.28;3.30;;;;;;;12.21;65.51;99361.88;4992674;28;102098;-91
2022/04/08 05:34:35;;;;;;;5.00;3.10;;;;;;;12.22;65.40;99363.47;4993132;28;102440;-91
2022/04/08 05:37:02;;;;;;;5.88;3.03;;;;;;;12.21;65.92;99362.69;4995343;28;102516;-88
2022/04/08 05:39:29;;;;;;;5.22;2.40;;;;;;;12.22;65.71;99366.22;4993210;28;104124;-94
2022/04/08 05:41:57;;;;;;;4.63;2.28;;;;;;;12.21;65.66;99368.13;5002976;28;101762;-90
2022/04/08 05:44:24;;;;;;;4.15;2.80;;;;;;;12.21;65.65;99368.13;4994814;28;102367;-95
2022/04/08 05:46:51;;;;;;;4.70;2.50;;;;;;;12.22;65.70;99368.94;4992306;28;102209;-89
2022/04/08 05:49:17;;;;;;;4.60;2.50;;;;;;;12.22;65.73;99372.47;4972854;28;103878;-89
2022/04/08 05:51:47;;;;;;;3.42;2.13;;;;;;;12.21;65.63;99376.31;4974101;28;102103;-91
2022/04/08 05:54:20;;;;;;;6.10;3.00;;;;;;;12.23;65.50;99376.03;4982070;28;102477;-92
2022/04/08 05:56:47;;;;;;;4.55;2.28;;;;;;;12.23;65.54;99371.38;4989168;28;102336;-92
2022/04/08 05:59:26;;;;;;;4.15;2.55;;;;;;;12.23;65.54;99365.13;4972269;28;103092;-94
2022/04/08 06:01:53;;;;;;;5.25;2.50;;;;;;;12.23;65.60;99376.03;4975204;28;102426;-92
2022/04/08 06:04:21;;;;;;;5.63;2.33;;;;;;;12.23;65.63;99370.56;4989344;28;102419;-91
2022/04/08 06:06:47;;;;;;;3.08;2.50;;;;;;;12.24;65.61;99372.97;4982513;28;102724;-89
2022/04/08 06:09:14;;;;;;;4.78;2.72;;;;;;;12.24;65.41;99378.44;4978922;28;103821;-93
2022/04/08 06:11:48;;;;;;;5.85;2.78;;;;;;;12.24;65.59;99383.09;4993246;28;102004;-90
2022/04/08 06:14:16;;;;;;;5.28;2.70;;;;;;;12.24;65.68;99383.88;4982692;28;102469;-92
2022/04/08 06:16:45;;;;;;;4.40;2.60;;;;;;;12.25;65.59;99385.47;4993906;28;102210;-91
2022/04/08 06:19:20;;;;;;;4.13;2.38;;;;;;;12.25;65.64;99390.94;4992687;28;103918;-92
2022/04/08 06:21:49;;;;;;;4.28;2.83;;;;;;;12.25;65.60;99390.94;4994649;28;102196;-92
2022/04/08 06:24:16;;;;;;;5.82;2.95;;;;;;;12.25;65.77;99390.94;4974499;28;102116;-92
2022/04/08 06:26:56;;;;;;;5.15;2.78;;;;;;;12.26;65.61;99398.03;4975267;28;102761;-93
2022/04/08 06:29:25;;;;;;;6.20;2.47;;;;;;;12.26;65.16;99403.47;4987753;28;104158;-92
2022/04/08 06:32:08;;;;;;;5.82;2.90;;;;;;;12.26;65.73;99403.47;4987464;28;102264;-95
2022/04/08 06:34:34;;;;;;;6.57;2.85;;;;;;;12.26;65.61;99416.28;4991001;28;101789;-92
2022/04/08 06:37:01;;;;;;;6.25;2.75;;;;;;;12.26;65.62;99424.47;4993878;28;102163;-92
2022/04/08 06:39:28;;;;;;;5.32;2.67;;;;;;;12.25;65.69;99429.13;4991946;28;103901;-94
2022/04/08 06:41:56;;;;;;;6.13;3.10;;;;;;;12.27;65.32;99426.91;4994671;28;102109;-92
2022/04/08 06:44:22;;;;;;;4.35;2.67;;;;;;;12.26;65.65;99425.31;4979105;28;102408;-91
2022/04/08 06:47:00;;;;;;;5.57;2.65;;;;;;;12.27;65.71;99431.56;4990599;28;102244;-92
2022/04/08 06:49:51;;;;;;;5.25;3.25;;;;;;;12.26;65.47;99436.22;5001420;28;103825;-92
2022/04/08 06:52:17;;;;;;;7.45;3.38;;;;;;;12.26;65.29;99433.47;4988251;28;102556;-94
2022/04/08 06:54:45;;;;;;;4.78;2.75;;;;;;;12.27;65.51;99443.28;4988721;28;102046;-92
2022/04/08 06:57:11;;;;;;;6.47;3.40;;;;;;;12.26;65.57;99441.66;4989853;28;102445;-91
2022/04/08 06:59:39;;;;;;;5.60;3.05;;;;;;;12.27;65.63;99447.91;4972268;28;104339;-89
2022/04/08 07:02:05;;;;;;;4.70;3.13;;;;;;;12.27;65.52;99465.09;4977354;28;102335;-89
2022/04/08 07:04:32;;;;;;;3.88;2.92;;;;;;;12.28;65.51;99449.53;4984620;28;102323;-94
2022/04/08 07:07:01;;;;;;;4.93;2.83;;;;;;;12.26;65.54;99452.56;4995795;28;102359;-93
2022/04/08 07:09:32;;;;;;;5.05;2.97;;;;;;;12.27;65.52;99470.53;4992838;28;104157;-93
2022/04/08 07:11:59;;;;;;;;;;;;;;;12.27;65.44;99478.72;5010230;28;102377;-92
2022/04/08 07:14:25;;;;;;;6.60;3.17;;;;;;;12.27;65.52;99484.19;4988807;28;102544;-92
2022/04/08 07:17:04;;;;;;;5.75;2.67;;;;;;;12.27;65.60;99486.91;4985363;28;102945;-91
2022/04/08 07:19:32;;;;;;;5.03;2.92;;;;;;;12.27;65.56;99492.38;4988512;28;104185;-90
2022/04/08 07:22:01;;;;;;;4.18;2.97;;;;;;;12.27;65.68;99484.19;4983094;28;102090;-92
2022/04/08 07:24:28;;;;;;;6.30;3.10;;;;;;;12.26;65.53;99490.75;4990875;28;102035;-92
2022/04/08 07:26:57;;;;;;;5.47;3.25;;;;;;;12.27;65.47;99497.81;4993260;28;102643;-92
2022/04/08 07:29:24;;;;;;;6.25;3.10;;;;;;;12.27;65.46;99497.81;5000026;28;103991;-89
2022/04/08 07:31:50;;;;;;;5.30;2.88;;;;;;;12.27;65.56;99497.03;4982139;28;102441;-88
2022/04/08 07:34:16;;;;;;;84.07;8.27;;;;;;;12.29;65.68;99493.97;4991544;28;102475;-90
2022/04/08 07:36:43;;;;;;;61.15;7.70;;;;;;;12.27;65.52;99494.28;4991315;28;102076;-88
2022/04/08 07:40:14;;;;;;;;;;;;;;;;;;;;;
2022/04/08 07:42:50;;;;;;;21.80;4.90;;;;;;;12.24;65.53;99492.19;4992018;28;101360;-94
2022/04/08 07:45:19;;;;;;;24.77;5.20;;;;;;;12.22;65.90;99497.94;4992833;28;102309;-96
2022/04/08 07:47:46;;;;;;;22.17;5.05;;;;;;;12.22;66.17;99494.41;4987302;28;102129;-94
2022/04/08 07:50:14;;;;;;;27.67;5.40;;;;;;;12.21;65.96;99493.59;4989768;28;103018;-93
2022/04/08 07:52:42;;;;;;;25.95;5.40;;;;;;;12.20;65.79;99497.47;4988435;28;102044;-92
2022/04/08 07:55:11;;;;;;;26.60;5.07;;;;;;;12.19;66.02;99490.41;4993448;28;102147;-94
2022/04/08 07:57:44;;;;;;;19.02;5.07;;;;;;;12.19;65.68;99484.94;4995718;28;102043;-92
2022/04/08 08:00:15;;;;;;;20.98;4.70;;;;;;;12.19;65.59;99490.41;4991788;28;104392;-92
2022/04/08 08:02:42;;;;;;;21.83;5.32;;;;;;;12.19;66.05;99487.69;4982211;28;102700;-95
2022/04/08 08:05:09;;;;;;;34.90;6.20;;;;;;;12.18;65.56;99483.31;4994679;28;102144;-94
2022/04/08 08:07:44;;;;;;;19.15;5.03;;;;;;;12.19;65.94;99484.94;4992662;28;102838;-94
2022/04/08 08:10:15;;;;;;;16.50;5.00;;;;;;;12.20;65.69;99486.56;5010145;28;103066;-94
2022/04/08 08:12:53;;;;;;;27.73;5.43;;;;;;;12.21;65.75;99488.16;4994065;28;102576;-94
2022/04/08 08:15:23;;;;;;;19.45;5.65;;;;;;;12.22;65.70;99491.69;4992531;28;102032;-92
2022/04/08 08:18:05;;;;;;;24.08;5.20;;;;;;;12.21;65.64;99490.06;5003012;28;102251;-91
2022/04/08 08:20:32;;;;;;;21.00;4.82;;;;;;;12.21;65.49;99499.06;4992884;28;103951;-88
2022/04/08 08:23:01;;;;;;;38.92;6.03;;;;;;;12.20;65.82;99516.56;4993377;28;102313;-88
2022/04/08 08:25:28;;;;;;;22.55;4.55;;;;;;;12.21;65.99;99520.09;4996864;22;102868;-48
2022/04/08 08:28:01;;;;;;;18.02;4.50;;;;;;;12.20;65.45;99530.19;4949775;28;104025;-50
2022/04/08 08:30:31;;;;;;;22.52;4.95;;;;;;;12.21;65.39;99531.78;4946967;28;104197;-47
2022/04/08 08:32:59;;;;;;;15.10;4.18;;;;;;;12.21;65.45;99542.69;4952665;28;102438;-48
2022/04/08 08:35:26;;;;;;;14.20;4.45;;;;;;;12.20;65.32;99527.47;4946394;28;102629;-50
2022/04/08 08:37:57;;;;;;;12.35;4.30;;;;;;;12.19;65.13;99523.13;4954019;28;102085;-48
2022/04/08 08:40:23;;;;;;;15.52;4.00;;;;;;;12.20;65.30;99546.56;4941154;28;104299;-49
2022/04/08 08:42:53;;;;;;;15.93;4.57;;;;;;;12.20;65.28;99546.56;4947216;28;102033;-47
2022/04/08 08:45:21;;;;;;;13.20;3.85;;;;;;;12.21;65.29;99564.53;4950991;28;102205;-48
2022/04/08 08:47:51;;;;;;;22.38;4.80;;;;;;;12.21;65.41;99569.97;4953268;28;102730;-50
2022/04/08 08:50:18;;;;;;;19.08;4.63;;;;;;;12.20;65.21;99571.09;4951877;28;103892;-48
2022/04/08 08:52:49;;;;;;;13.23;3.60;;;;;;;12.20;64.92;99579.28;4949191;28;102468;-48
2022/04/08 08:55:18;;;;;;;9.30;3.45;;;;;;;12.20;65.03;99573.03;4951430;28;102037;-49
2022/04/08 08:57:45;;;;;;;11.27;3.88;;;;;;;12.20;65.25;99579.28;4949071;28;102306;-50
2022/04/08 09:00:14;;;;;;;11.43;4.32;;;;;;;12.20;65.28;99579.28;4949288;28;104155;-47
2022/04/08 09:02:45;;;;;;;9.05;3.60;;;;;;;12.20;65.14;99579.28;4952498;28;101980;-47
2022/04/08 09:05:16;;;;;;;14.38;3.65;;;;;;;12.19;65.42;99572.22;4952509;28;102487;-47
2022/04/08 09:07:51;;;;;;;10.38;3.75;;;;;;;12.19;65.02;99579.63;4952147;28;102534;-48
2022/04/08 09:10:23;;;;;;;11.80;4.05;;;;;;;12.19;65.31;99577.69;4950030;28;104108;-47
2022/04/08 09:12:54;;;;;;;14.40;4.13;;;;;;;12.19;65.15;99588.59;4952880;28;102440;-47
2022/04/08 09:15:21;;;;;;;18.08;3.90;;;;;;;12.19;64.94;99583.13;4947990;28;102011;-47
2022/04/08 09:17:47;;;;;;;11.88;3.85;;;;;;;12.20;64.85;99590.19;4945067;28;102495;-48
2022/04/08 09:20:16;;;;;;;15.07;4.45;;;;;;;12.21;65.03;99583.63;4951704;28;103952;-47
2022/04/08 09:22:43;;;;;;;15.93;3.85;;;;;;;12.22;65.04;99587.94;4941775;28;102339;-48
2022/04/08 09:25:11;;;;;;;10.25;3.83;;;;;;;12.22;64.78;99590.69;4949697;28;102029;-47
2022/04/08 09:27:39;;;;;;;11.30;4.13;;;;;;;12.24;65.00;99583.00;4984704;28;102458;-47
2022/04/08 09:30:08;;;;;;;19.77;4.32;;;;;;;12.26;64.97;99578.06;4987515;28;104032;-46
2022/04/08 09:32:35;;;;;;;14.57;3.77;;;;;;;12.29;64.64;99575.81;4991370;28;101899;-50
2022/04/08 09:35:03;;;;;;;15.60;3.78;;;;;;;12.32;64.59;99570.53;4987551;28;102658;-48
2022/04/08 09:37:31;;;;;;;10.55;4.40;;;;;;;12.38;64.35;99568.50;4989488;28;102028;-47
2022/04/08 09:40:00;;;;;;;22.57;4.87;;;;;;;12.40;64.39;99555.34;4989349;28;103922;-48
2022/04/08 09:42:42;;;;;;;17.52;4.22;;;;;;;12.41;64.11;99562.44;4986652;28;102319;-50
2022/04/08 09:45:10;;;;;;;21.13;4.40;;;;;;;12.47;64.17;99566.63;4986145;28;102475;-50
2022/04/08 09:47:37;;;;;;;12.27;4.68;;;;;;;12.49;64.01;99578.03;4982335;28;102865;-50
2022/04/08 09:50:08;;;;;;;16.15;3.97;;;;;;;12.53;64.01;99578.22;4987347;28;104018;-47
2022/04/08 09:52:38;;;;;;;14.70;4.28;;;;;;;12.56;63.76;99570.22;4989426;28;101885;-48
2022/04/08 09:55:07;;;;;;;13.27;4.18;;;;;;;12.55;63.74;99562.31;4990854;28;102378;-47
2022/04/08 09:57:37;;;;;;;11.40;3.67;;;;;;;12.57;63.67;99544.53;4990371;28;102773;-51
2022/04/08 10:00:07;;;;;;;16.70;4.40;;;;;;;12.61;63.52;99556.41;4987372;28;103847;-49
2022/04/08 10:02:39;;;;;;;13.13;4.03;;;;;;;12.63;63.70;99559.66;4990053;28;102318;-48
2022/04/08 10:05:08;;;;;;;17.75;4.20;;;;;;;12.61;63.59;99561.09;4986683;28;102034;-48
2022/04/08 10:07:37;;;;;;;21.33;4.72;;;;;;;12.63;63.52;99554.19;4989335;28;102067;-48
2022/04/08 10:10:09;;;;;;;12.15;4.20;;;;;;;12.64;63.50;99550.34;4990543;28;103763;-48
2022/04/08 10:12:44;;;;;;;17.05;4.50;;;;;;;12.67;63.42;99544.25;4985683;28;102091;-48
2022/04/08 10:15:18;;;;;;;13.55;3.42;;;;;;;12.73;63.41;99548.47;4987206;28;102295;-48
2022/04/08 10:17:55;;;;;;;15.10;4.25;;;;;;;12.72;63.31;99544.13;4991550;28;102271;-50
2022/04/08 10:20:23;;;;;;;10.55;4.05;;;;;;;12.71;63.21;99545.25;4988881;28;103954;-52
2022/04/08 10:23:02;;;;;;;13.90;4.60;;;;;;;12.75;62.88;99551.69;4980653;28;102404;-50
2022/04/08 10:25:36;;;;;;;13.43;3.70;;;;;;;12.83;63.14;99546.56;4985439;28;102424;-50
2022/04/08 10:28:03;;;;;;;17.55;3.90;;;;;;;12.86;62.71;99546.75;4991012;28;102462;-47
2022/04/08 10:30:33;;;;;;;16.70;4.40;;;;;;;12.87;62.45;99542.09;4986316;28;103934;-51
2022/04/08 10:33:02;;;;;;;14.35;4.22;;;;;;;12.88;62.48;99544.53;4988964;28;102365;-48
2022/04/08 10:35:29;;;;;;;15.15;4.20;;;;;;;12.87;62.47;99542.09;4990126;28;102341;-50
2022/04/08 10:37:59;;;;;;;16.73;3.60;;;;;;;12.88;62.68;99547.25;4981285;28;102540;-48
2022/04/08 10:40:31;;;;;;;14.68;4.13;;;;;;;12.91;62.82;99549.34;4990274;28;103665;-48
2022/04/08 10:43:00;;;;;;;14.90;4.50;;;;;;;12.95;62.34;99538.59;4989880;28;102787;-49
2022/04/08 10:45:29;;;;;;;14.30;5.40;;;;;;;12.93;62.34;99552.56;4982155;28;102607;-51
2022/04/08 10:48:00;;;;;;;16.97;5.00;;;;;;;12.96;62.27;99557.41;4986358;28;102106;-50
2022/04/08 10:50:30;;;;;;;11.95;4.40;;;;;;;12.97;61.75;99553.53;4981147;28;103840;-49
2022/04/08 10:53:08;;;;;;;15.80;4.80;;;;;;;13.01;61.49;99542.78;4985051;28;102074;-48
2022/04/08 10:55:46;;;;;;;13.93;4.40;;;;;;;13.06;61.07;99559.03;4979556;28;102511;-47
2022/04/08 10:58:15;;;;;;;16.00;4.07;;;;;;;13.07;60.80;99552.47;4988928;28;102134;-48
2022/04/08 11:00:44;;;;;;;18.33;3.90;;;;;;;13.07;60.95;99552.47;4983829;28;103993;-48
2022/04/08 11:03:11;;;;;;;11.45;3.70;;;;;;;13.12;60.59;99549.56;4976808;28;102252;-49
2022/04/08 11:05:38;;;;;;;23.90;4.47;;;;;;;13.16;60.64;99550.56;4976443;28;102291;-48
2022/04/08 11:08:07;;;;;;;16.02;4.25;;;;;;;13.20;60.16;99561.66;4988568;28;102891;-48
2022/04/08 11:10:35;;;;;;;13.98;3.97;;;;;;;13.19;60.26;99571.75;4988836;28;103890;-48
2022/04/08 11:13:01;;;;;;;16.27;4.25;;;;;;;13.20;60.07;99567.94;4988396;28;102546;-49
2022/04/08 11:15:31;;;;;;;18.13;3.73;;;;;;;13.21;59.83;99566.00;4984223;28;102524;-47
2022/04/08 11:18:00;;;;;;;16.73;4.13;;;;;;;13.26;59.26;99571.34;4986694;28;102611;-49
2022/04/08 11:20:27;;;;;;;11.52;4.43;;;;;;;13.26;59.67;99565.06;4989084;28;103946;-50
2022/04/08 11:22:55;;;;;;;12.27;3.97;;;;;;;13.28;59.60;99568.31;4988029;28;102333;-48
2022/04/08 11:25:25;;;;;;;;;;;;;;;13.27;59.88;99562.03;4987958;28;102426;-48
2022/04/08 11:27:59;;;;;;;15.32;3.85;;;;;;;13.32;59.63;99550.16;4990218;28;102249;-49
2022/04/08 11:30:26;;;;;;;18.17;4.47;;;;;;;13.30;59.26;99574.25;4988780;28;103737;-48
2022/04/08 11:32:54;;;;;;;12.57;4.35;;;;;;;13.30;59.30;99571.50;4986598;28;102459;-48